Time;durP1;ratioP1;P1;durP2;ratioP2;P2;SDS_P1;SDS_P2;PMS_P1;PMS_P2;Temp;Humidity;BMP_temperature;BMP_pressure;BME280_temperature;BME280_humidity;BME280_pressure;Samples;Min_cycle;Max_cycle;Signal;HPM_P1;HPM_P2
2022/12/22 03:31:06;;;;;;;1999.90;999.90;;;10.10;99.90;;;;;;6733466;88;20256;-76
2022/12/22 03:41:06;;;;;;;1999.90;999.90;;;10.10;99.90;;;;;;6736613;88;20902;-77
2022/12/22 03:51:07;;;;;;;1999.90;999.90;;;10.10;99.90;;;;;;6727378;88;20284;-75
2022/12/22 04:01:08;;;;;;;1999.90;999.90;;;10.20;99.90;;;;;;6736496;88;20204;-76
2022/12/22 04:21:32;;;;;;;1999.90;999.90;;;10.10;99.90;;;;;;6736033;88;20259;-75
2022/12/22 04:31:33;;;;;;;1999.90;999.90;;;10.20;99.90;;;;;;6736105;88;20798;-75
2022/12/22 04:41:33;;;;;;;1999.90;999.90;;;10.20;99.90;;;;;;6734173;88;20316;-76
2022/12/22 04:51:34;;;;;;;1999.90;999.90;;;10.10;99.90;;;;;;6737200;88;20188;-75
2022/12/22 05:01:34;;;;;;;1999.90;999.90;;;10.10;99.90;;;;;;6736602;88;20204;-75
2022/12/22 05:11:35;;;;;;;1999.90;999.90;;;10.20;99.90;;;;;;6743982;88;20200;-75
2022/12/22 05:21:35;;;;;;;1999.90;999.90;;;10.20;99.90;;;;;;6735324;88;21104;-75
2022/12/22 05:31:36;;;;;;;1999.90;999.90;;;10.20;99.90;;;;;;6723640;77;20210;-73
2022/12/22 05:41:36;;;;;;;1999.90;999.90;;;10.30;99.90;;;;;;6712928;88;20287;-73
2022/12/22 05:51:37;;;;;;;1999.90;999.90;;;10.50;99.90;;;;;;6712664;88;20247;-77
2022/12/22 06:01:37;;;;;;;1999.90;999.90;;;10.90;99.90;;;;;;6713276;88;20192;-76
2022/12/22 06:11:38;;;;;;;1999.90;999.90;;;10.90;99.90;;;;;;6713379;88;20245;-76
2022/12/22 06:21:38;;;;;;;1999.90;999.90;;;11.00;99.90;;;;;;6712536;88;20194;-75
2022/12/22 06:31:39;;;;;;;1999.90;999.90;;;11.00;99.90;;;;;;6712040;88;20197;-76
2022/12/22 06:52:00;;;;;;;1999.90;999.90;;;10.90;99.90;;;;;;6695213;88;20665;-74
2022/12/22 07:02:00;;;;;;;1999.90;999.90;;;10.70;99.90;;;;;;6705716;88;20203;-74
2022/12/22 07:12:01;;;;;;;1999.90;999.90;;;10.50;99.90;;;;;;6715484;88;20591;-77
2022/12/22 07:22:01;;;;;;;1999.90;999.90;;;10.40;99.90;;;;;;6714118;88;22535;-74
2022/12/22 07:32:02;;;;;;;1999.90;999.90;;;10.40;99.90;;;;;;6714242;88;20192;-74
2022/12/22 07:52:22;;;;;;;1999.90;999.90;;;10.60;99.90;;;;;;6713402;88;20258;-74
2022/12/22 08:02:23;;;;;;;1999.90;999.90;;;10.70;99.90;;;;;;6710491;88;20253;-75
2022/12/22 08:12:24;;;;;;;1999.90;999.90;;;10.50;99.90;;;;;;6713731;88;20209;-74
2022/12/22 08:22:24;;;;;;;1999.90;999.90;;;10.60;99.90;;;;;;6714188;88;20292;-74
2022/12/22 08:32:25;;;;;;;1999.90;999.90;;;10.50;99.90;;;;;;6713668;88;21029;-78
2022/12/22 08:42:26;;;;;;;1999.90;999.90;;;10.30;99.90;;;;;;6713865;88;20625;-75
2022/12/22 08:52:26;;;;;;;1999.90;999.90;;;10.50;99.90;;;;;;6713408;88;20214;-75
2022/12/22 09:02:27;;;;;;;1999.90;999.90;;;10.40;99.90;;;;;;6713308;88;20254;-74
2022/12/22 09:12:28;;;;;;;1999.90;999.90;;;10.50;99.90;;;;;;6713093;88;20223;-74
2022/12/22 09:22:28;;;;;;;1999.90;999.90;;;10.60;99.90;;;;;;6711674;88;20288;-75
2022/12/22 09:32:29;;;;;;;1999.90;999.90;;;10.50;99.90;;;;;;6710153;88;20192;-79
2022/12/22 09:42:33;;;;;;;1999.90;999.90;;;10.40;99.90;;;;;;6710709;88;20285;-79
2022/12/22 09:52:33;;;;;;;1999.90;999.90;;;10.30;99.90;;;;;;6693498;88;20256;-78
2022/12/22 10:02:56;;;;;;;1999.90;999.90;;;10.30;99.90;;;;;;6693117;88;20745;-76
2022/12/22 10:12:59;;;;;;;1999.90;999.90;;;10.30;99.90;;;;;;6693145;88;20217;-76
2022/12/22 10:23:05;;;;;;;1999.90;999.90;;;10.40;99.90;;;;;;6693389;88;20269;-76
2022/12/22 10:33:07;;;;;;;;;;;10.60;99.90;;;;;;6718355;88;20374;-75
2022/12/22 10:43:08;;;;;;;1999.90;999.90;;;10.80;99.90;;;;;;6705527;88;20582;-75
2022/12/22 10:53:08;;;;;;;1999.90;999.90;;;11.00;99.90;;;;;;6706303;88;20178;-76
2022/12/22 11:03:13;;;;;;;1999.90;999.90;;;10.90;99.90;;;;;;6706996;88;20414;-76
2022/12/22 11:13:32;;;;;;;1999.90;999.90;;;10.80;99.90;;;;;;6712532;88;20624;-77
2022/12/22 11:23:57;;;;;;;1999.90;999.90;;;11.20;99.90;;;;;;6707406;88;20309;-76
2022/12/22 11:34:22;;;;;;;1999.90;999.90;;;11.20;99.90;;;;;;6704177;88;20626;-75
2022/12/22 11:44:48;;;;;;;1999.90;999.90;;;10.90;99.90;;;;;;6699139;88;20787;-76
2022/12/22 11:55:01;;;;;;;;;;;11.40;99.90;;;;;;6699737;88;20284;-75
2022/12/22 12:05:22;;;;;;;1999.90;999.90;;;11.40;99.90;;;;;;6700234;88;20061;-74
2022/12/22 12:15:30;;;;;;;1999.90;999.90;;;11.30;99.90;;;;;;6707916;88;20373;-74
2022/12/22 12:25:43;;;;;;;1999.90;999.90;;;11.20;99.90;;;;;;6703191;88;20240;-73
2022/12/22 12:35:52;;;;;;;1999.90;999.90;;;11.10;99.90;;;;;;6691655;88;20270;-73
2022/12/22 12:45:54;;;;;;;1999.90;999.90;;;11.10;99.90;;;;;;6702737;77;20194;-74
2022/12/22 12:55:57;;;;;;;1999.90;999.90;;;11.10;99.90;;;;;;6711362;88;20186;-76
2022/12/22 13:06:00;;;;;;;1999.90;999.90;;;11.00;99.90;;;;;;6708991;88;20211;-73
2022/12/22 13:16:01;;;;;;;1999.90;999.90;;;11.00;99.90;;;;;;6704182;88;20220;-72
2022/12/22 13:26:05;;;;;;;1999.90;999.90;;;10.90;99.90;;;;;;6703185;88;20320;-73
2022/12/22 13:36:14;;;;;;;1999.90;999.90;;;11.00;99.90;;;;;;6708140;88;20227;-72
2022/12/22 13:46:14;;;;;;;1999.90;999.90;;;10.80;99.90;;;;;;6708065;88;20604;-72
2022/12/22 13:56:23;;;;;;;1999.90;999.90;;;10.80;99.90;;;;;;6703172;88;20232;-75
2022/12/22 14:06:34;;;;;;;1999.90;999.90;;;12.10;99.90;;;;;;6704433;88;20273;-73
2022/12/22 14:16:42;;;;;;;1999.90;999.90;;;12.30;99.90;;;;;;6706373;88;20261;-74
2022/12/22 14:26:43;;;;;;;1999.90;999.90;;;11.80;99.90;;;;;;6704712;88;20678;-72
2022/12/22 14:36:49;;;;;;;1999.90;999.90;;;11.50;99.90;;;;;;6703178;88;20257;-73
2022/12/22 14:47:10;;;;;;;1999.90;999.90;;;10.90;99.90;;;;;;6705782;88;20186;-74
2022/12/22 14:57:16;;;;;;;1999.90;999.90;;;10.80;99.90;;;;;;6706284;88;20243;-73
2022/12/22 15:07:19;;;;;;;1999.90;999.90;;;10.60;99.90;;;;;;6706406;88;20215;-73
2022/12/22 15:17:24;;;;;;;1999.90;999.90;;;10.20;99.90;;;;;;6704135;88;20705;-75
2022/12/22 15:27:24;;;;;;;1999.90;999.90;;;10.20;99.90;;;;;;6704793;88;20355;-74
2022/12/22 15:37:25;;;;;;;1999.90;999.90;;;10.20;99.90;;;;;;6707146;88;20204;-74
2022/12/22 15:47:26;;;;;;;1999.90;999.90;;;10.10;99.90;;;;;;6703806;88;21003;-73
2022/12/22 15:57:27;;;;;;;1999.90;999.90;;;10.10;99.90;;;;;;6704154;88;20236;-73
2022/12/22 16:07:30;;;;;;;1999.90;999.90;;;10.10;99.90;;;;;;6705543;88;20235;-72
2022/12/22 16:17:31;;;;;;;1999.90;999.90;;;10.10;99.90;;;;;;6705643;88;20654;-75
2022/12/22 16:27:34;;;;;;;1999.90;999.90;;;10.00;99.90;;;;;;6704587;88;20694;-74
2022/12/22 16:37:35;;;;;;;1999.90;999.90;;;10.00;99.90;;;;;;6706135;88;20312;-72
2022/12/22 16:47:35;;;;;;;1999.90;999.90;;;10.10;99.90;;;;;;6717403;88;20634;-73
2022/12/22 16:57:36;;;;;;;1999.90;999.90;;;10.00;99.90;;;;;;6705254;88;20207;-71
2022/12/22 17:07:36;;;;;;;1999.90;999.90;;;10.00;99.90;;;;;;6702141;88;20205;-72
2022/12/22 17:17:37;;;;;;;1999.90;999.90;;;10.10;99.90;;;;;;6708277;88;20202;-72
2022/12/22 17:27:38;;;;;;;1999.90;999.90;;;10.10;99.90;;;;;;6703878;88;20424;-73
2022/12/22 17:37:38;;;;;;;1999.90;999.90;;;10.30;99.90;;;;;;6703851;88;20215;-73
2022/12/22 17:47:39;;;;;;;1999.90;999.90;;;10.30;99.90;;;;;;6708787;88;20170;-73
2022/12/22 17:57:40;;;;;;;1999.90;999.90;;;10.40;99.90;;;;;;6709705;88;20205;-75
2022/12/22 18:07:41;;;;;;;1999.90;999.90;;;10.40;99.90;;;;;;6709934;88;20507;-74
2022/12/22 18:17:42;;;;;;;1999.90;999.90;;;10.50;99.90;;;;;;6707826;88;20800;-75
2022/12/22 18:27:43;;;;;;;1999.90;999.90;;;10.50;99.90;;;;;;6704947;88;20616;-75
2022/12/22 18:37:44;;;;;;;1999.90;999.90;;;10.60;99.90;;;;;;6704021;88;20679;-74
2022/12/22 18:47:44;;;;;;;1999.90;999.90;;;10.70;99.90;;;;;;6704382;88;20193;-75
2022/12/22 18:57:48;;;;;;;1999.90;999.90;;;10.60;99.90;;;;;;6702887;88;20372;-75
2022/12/22 19:07:49;;;;;;;1999.90;999.90;;;10.60;99.90;;;;;;6704789;88;20313;-73
2022/12/22 19:17:50;;;;;;;1999.90;999.90;;;10.50;99.90;;;;;;6703598;88;20190;-75
2022/12/22 19:27:53;;;;;;;1999.90;999.90;;;10.50;99.90;;;;;;6702066;88;20193;-74
2022/12/22 19:37:54;;;;;;;1999.90;999.90;;;10.40;99.90;;;;;;6706264;88;20744;-75
2022/12/22 19:47:56;;;;;;;1999.90;999.90;;;10.40;99.90;;;;;;6708424;88;20220;-76
2022/12/22 19:57:56;;;;;;;1999.90;999.90;;;10.20;99.90;;;;;;6715138;88;20215;-76
2022/12/22 20:07:59;;;;;;;1999.90;999.90;;;10.20;99.90;;;;;;6723821;88;20728;-76
2022/12/22 20:18:00;;;;;;;1999.90;999.90;;;10.20;99.90;;;;;;6724351;88;20198;-73
2022/12/22 20:28:04;;;;;;;1999.90;999.90;;;10.30;99.90;;;;;;6728595;88;20284;-75
2022/12/22 20:38:13;;;;;;;1999.90;999.90;;;10.30;99.90;;;;;;6725699;88;20314;-75
2022/12/22 20:48:32;;;;;;;1999.90;999.90;;;10.30;99.90;;;;;;6723065;88;20183;-75
2022/12/22 20:58:34;;;;;;;1999.90;999.90;;;10.10;99.90;;;;;;6726442;88;20803;-76
2022/12/22 21:08:34;;;;;;;1999.90;999.90;;;10.00;99.90;;;;;;6734610;88;20215;-76
2022/12/22 21:18:35;;;;;;;1999.90;999.90;;;10.00;99.90;;;;;;6719557;88;20243;-75
2022/12/22 21:28:37;;;;;;;1999.90;999.90;;;10.10;99.90;;;;;;6723750;88;20264;-76
2022/12/22 21:38:38;;;;;;;1999.90;999.90;;;10.00;99.90;;;;;;6721690;88;20208;-74
2022/12/22 21:48:38;;;;;;;1999.90;999.90;;;9.90;99.90;;;;;;6721893;88;20178;-75
2022/12/22 21:58:39;;;;;;;1999.90;999.90;;;9.70;99.90;;;;;;6720748;88;20201;-76
2022/12/22 22:08:40;;;;;;;1999.90;999.90;;;9.60;99.90;;;;;;6721095;88;20564;-77
2022/12/22 22:18:43;;;;;;;1999.90;999.90;;;9.50;99.90;;;;;;6715807;88;20190;-77
2022/12/22 22:28:44;;;;;;;1999.90;999.90;;;9.40;99.90;;;;;;6713060;88;20201;-76
2022/12/22 22:38:44;;;;;;;1999.90;999.90;;;9.40;99.90;;;;;;6709652;88;20206;-74
2022/12/22 22:48:46;;;;;;;1999.90;999.90;;;9.50;99.90;;;;;;6710592;88;20195;-73
2022/12/22 22:58:47;;;;;;;1999.90;999.90;;;9.60;99.90;;;;;;6700729;88;20193;-74
2022/12/22 23:08:48;;;;;;;1999.90;999.90;;;9.50;99.90;;;;;;6708865;88;20216;-73
2022/12/22 23:18:51;;;;;;;1999.90;999.90;;;9.50;99.90;;;;;;6698337;88;20226;-75
2022/12/22 23:28:52;;;;;;;1999.90;999.90;;;9.50;99.90;;;;;;6706522;88;20364;-73
2022/12/22 23:38:53;;;;;;;1999.90;999.90;;;9.50;99.90;;;;;;6706688;88;20212;-75
2022/12/22 23:48:56;;;;;;;1999.90;999.90;;;9.50;99.90;;;;;;6713837;88;20205;-75
2022/12/22 23:58:58;;;;;;;1999.90;999.90;;;9.50;99.90;;;;;;6714092;88;20286;-74
